sensor_id;sensor_type;location;lat;lon;timestamp;P1;durP1;ratioP1;P2;durP2;ratioP2
63018;SDS011;49105;46.046;10.760;2023-01-29T00:01:51;3.53;;;3.42;;
63018;SDS011;49105;46.046;10.760;2023-01-29T00:04:16;3.03;;;2.92;;
63018;SDS011;49105;46.046;10.760;2023-01-29T00:06:51;2.58;;;2.58;;
63018;SDS011;49105;46.046;10.760;2023-01-29T00:09:19;2.80;;;2.70;;
63018;SDS011;49105;46.046;10.760;2023-01-29T00:11:45;3.70;;;3.60;;
63018;SDS011;49105;46.046;10.760;2023-01-29T00:14:11;3.47;;;3.38;;
63018;SDS011;49105;46.046;10.760;2023-01-29T00:16:37;3.30;;;3.20;;
63018;SDS011;49105;46.046;10.760;2023-01-29T00:19:06;2.63;;;2.60;;
63018;SDS011;49105;46.046;10.760;2023-01-29T00:21:31;2.85;;;2.75;;
63018;SDS011;49105;46.046;10.760;2023-01-29T00:24:00;3.47;;;3.38;;
63018;SDS011;49105;46.046;10.760;2023-01-29T00:26:33;3.10;;;3.00;;
63018;SDS011;49105;46.046;10.760;2023-01-29T00:29:07;3.47;;;3.38;;
63018;SDS011;49105;46.046;10.760;2023-01-29T00:31:43;3.17;;;3.08;;
63018;SDS011;49105;46.046;10.760;2023-01-29T00:34:12;2.90;;;2.80;;
63018;SDS011;49105;46.046;10.760;2023-01-29T00:36:43;2.83;;;2.72;;
63018;SDS011;49105;46.046;10.760;2023-01-29T00:39:09;3.40;;;3.30;;
63018;SDS011;49105;46.046;10.760;2023-01-29T00:41:44;3.13;;;3.03;;
63018;SDS011;49105;46.046;10.760;2023-01-29T00:44:28;3.00;;;2.90;;
63018;SDS011;49105;46.046;10.760;2023-01-29T00:47:11;4.22;;;4.13;;
63018;SDS011;49105;46.046;10.760;2023-01-29T00:49:54;4.65;;;4.55;;
63018;SDS011;49105;46.046;10.760;2023-01-29T00:52:26;4.00;;;3.90;;
63018;SDS011;49105;46.046;10.760;2023-01-29T00:55:01;3.22;;;3.13;;
63018;SDS011;49105;46.046;10.760;2023-01-29T00:57:32;2.53;;;2.53;;
63018;SDS011;49105;46.046;10.760;2023-01-29T00:59:59;3.00;;;2.90;;
63018;SDS011;49105;46.046;10.760;2023-01-29T01:02:25;3.42;;;3.33;;
63018;SDS011;49105;46.046;10.760;2023-01-29T01:08:19;3.20;;;3.10;;
63018;SDS011;49105;46.046;10.760;2023-01-29T01:11:04;3.38;;;3.28;;
63018;SDS011;49105;46.046;10.760;2023-01-29T01:13:39;2.92;;;2.83;;
63018;SDS011;49105;46.046;10.760;2023-01-29T01:16:08;3.63;;;3.42;;
63018;SDS011;49105;46.046;10.760;2023-01-29T01:18:46;2.88;;;2.78;;
63018;SDS011;49105;46.046;10.760;2023-01-29T01:21:15;2.80;;;2.70;;
63018;SDS011;49105;46.046;10.760;2023-01-29T01:23:52;3.30;;;3.20;;
63018;SDS011;49105;46.046;10.760;2023-01-29T01:26:17;3.30;;;3.20;;
63018;SDS011;49105;46.046;10.760;2023-01-29T01:28:46;3.35;;;3.25;;
63018;SDS011;49105;46.046;10.760;2023-01-29T01:31:17;4.00;;;3.75;;
63018;SDS011;49105;46.046;10.760;2023-01-29T01:33:53;3.20;;;3.10;;
63018;SDS011;49105;46.046;10.760;2023-01-29T01:36:28;3.08;;;2.97;;
63018;SDS011;49105;46.046;10.760;2023-01-29T01:38:56;2.90;;;2.80;;
63018;SDS011;49105;46.046;10.760;2023-01-29T01:41:31;3.28;;;3.17;;
63018;SDS011;49105;46.046;10.760;2023-01-29T01:44:03;3.15;;;3.05;;
63018;SDS011;49105;46.046;10.760;2023-01-29T01:46:32;2.67;;;2.63;;
63018;SDS011;49105;46.046;10.760;2023-01-29T01:49:11;3.10;;;3.00;;
63018;SDS011;49105;46.046;10.760;2023-01-29T01:51:49;3.20;;;3.10;;
63018;SDS011;49105;46.046;10.760;2023-01-29T01:54:29;2.60;;;2.60;;
63018;SDS011;49105;46.046;10.760;2023-01-29T01:57:03;3.15;;;3.05;;
63018;SDS011;49105;46.046;10.760;2023-01-29T01:59:39;2.78;;;2.67;;
63018;SDS011;49105;46.046;10.760;2023-01-29T02:02:16;3.10;;;3.00;;
63018;SDS011;49105;46.046;10.760;2023-01-29T02:05:00;3.17;;;3.08;;
63018;SDS011;49105;46.046;10.760;2023-01-29T02:07:51;2.97;;;2.88;;
63018;SDS011;49105;46.046;10.760;2023-01-29T02:10:42;3.35;;;3.25;;
63018;SDS011;49105;46.046;10.760;2023-01-29T02:13:15;3.63;;;3.53;;
63018;SDS011;49105;46.046;10.760;2023-01-29T02:15:51;2.90;;;2.80;;
63018;SDS011;49105;46.046;10.760;2023-01-29T02:18:18;3.65;;;3.55;;
63018;SDS011;49105;46.046;10.760;2023-01-29T02:20:57;3.17;;;3.08;;
63018;SDS011;49105;46.046;10.760;2023-01-29T02:26:31;3.65;;;3.45;;
63018;SDS011;49105;46.046;10.760;2023-01-29T02:29:18;10.20;;;3.78;;
63018;SDS011;49105;46.046;10.760;2023-01-29T02:37:33;3.15;;;3.00;;
63018;SDS011;49105;46.046;10.760;2023-01-29T02:40:25;2.90;;;2.80;;
63018;SDS011;49105;46.046;10.760;2023-01-29T02:46:22;3.17;;;3.08;;
63018;SDS011;49105;46.046;10.760;2023-01-29T02:49:31;3.47;;;3.17;;
63018;SDS011;49105;46.046;10.760;2023-01-29T02:54:42;3.10;;;2.90;;
63018;SDS011;49105;46.046;10.760;2023-01-29T02:57:22;3.17;;;3.08;;
63018;SDS011;49105;46.046;10.760;2023-01-29T03:05:28;3.63;;;3.53;;
63018;SDS011;49105;46.046;10.760;2023-01-29T03:08:05;4.93;;;4.18;;
63018;SDS011;49105;46.046;10.760;2023-01-29T03:10:52;3.30;;;3.20;;
63018;SDS011;49105;46.046;10.760;2023-01-29T03:19:04;3.58;;;3.47;;
63018;SDS011;49105;46.046;10.760;2023-01-29T03:21:36;3.30;;;3.20;;
63018;SDS011;49105;46.046;10.760;2023-01-29T03:24:38;3.30;;;3.20;;
63018;SDS011;49105;46.046;10.760;2023-01-29T03:27:28;3.60;;;3.50;;
63018;SDS011;49105;46.046;10.760;2023-01-29T03:30:35;3.92;;;3.83;;
63018;SDS011;49105;46.046;10.760;2023-01-29T03:33:23;3.55;;;3.45;;
63018;SDS011;49105;46.046;10.760;2023-01-29T03:36:00;3.60;;;3.50;;
63018;SDS011;49105;46.046;10.760;2023-01-29T03:38:32;3.47;;;3.38;;
63018;SDS011;49105;46.046;10.760;2023-01-29T03:41:01;3.45;;;3.35;;
63018;SDS011;49105;46.046;10.760;2023-01-29T03:43:48;3.10;;;3.00;;
63018;SDS011;49105;46.046;10.760;2023-01-29T03:46:37;3.40;;;3.30;;
63018;SDS011;49105;46.046;10.760;2023-01-29T03:52:19;3.42;;;3.30;;
63018;SDS011;49105;46.046;10.760;2023-01-29T03:57:38;3.40;;;3.30;;
63018;SDS011;49105;46.046;10.760;2023-01-29T04:00:17;3.70;;;3.60;;
63018;SDS011;49105;46.046;10.760;2023-01-29T04:03:07;3.60;;;3.50;;
63018;SDS011;49105;46.046;10.760;2023-01-29T04:05:46;3.90;;;3.80;;
63018;SDS011;49105;46.046;10.760;2023-01-29T04:09:10;3.85;;;3.75;;
63018;SDS011;49105;46.046;10.760;2023-01-29T04:11:44;3.50;;;3.40;;
63018;SDS011;49105;46.046;10.760;2023-01-29T04:14:21;3.80;;;3.70;;
63018;SDS011;49105;46.046;10.760;2023-01-29T04:16:51;3.83;;;3.72;;
63018;SDS011;49105;46.046;10.760;2023-01-29T04:19:28;3.30;;;3.20;;
63018;SDS011;49105;46.046;10.760;2023-01-29T04:25:22;3.50;;;3.40;;
63018;SDS011;49105;46.046;10.760;2023-01-29T04:44:22;3.05;;;2.95;;
63018;SDS011;49105;46.046;10.760;2023-01-29T04:52:08;3.70;;;3.60;;
63018;SDS011;49105;46.046;10.760;2023-01-29T05:00:08;3.67;;;3.47;;
63018;SDS011;49105;46.046;10.760;2023-01-29T05:02:39;3.15;;;3.05;;
63018;SDS011;49105;46.046;10.760;2023-01-29T05:05:12;3.00;;;2.90;;
63018;SDS011;49105;46.046;10.760;2023-01-29T05:07:42;2.75;;;2.72;;
63018;SDS011;49105;46.046;10.760;2023-01-29T05:10:18;2.72;;;2.70;;
63018;SDS011;49105;46.046;10.760;2023-01-29T05:12:59;3.15;;;3.05;;
63018;SDS011;49105;46.046;10.760;2023-01-29T05:18:03;3.30;;;3.20;;
63018;SDS011;49105;46.046;10.760;2023-01-29T05:20:32;3.20;;;3.10;;
63018;SDS011;49105;46.046;10.760;2023-01-29T05:23:03;3.05;;;2.95;;
63018;SDS011;49105;46.046;10.760;2023-01-29T05:25:38;3.35;;;3.25;;
63018;SDS011;49105;46.046;10.760;2023-01-29T05:28:07;5.85;;;5.65;;
63018;SDS011;49105;46.046;10.760;2023-01-29T05:30:44;3.50;;;3.40;;
63018;SDS011;49105;46.046;10.760;2023-01-29T05:33:27;3.45;;;3.35;;
63018;SDS011;49105;46.046;10.760;2023-01-29T05:36:00;3.28;;;3.17;;
63018;SDS011;49105;46.046;10.760;2023-01-29T05:38:25;3.55;;;3.45;;
63018;SDS011;49105;46.046;10.760;2023-01-29T05:40:51;3.25;;;3.15;;
63018;SDS011;49105;46.046;10.760;2023-01-29T05:43:25;3.90;;;3.80;;
63018;SDS011;49105;46.046;10.760;2023-01-29T05:46:00;3.00;;;2.90;;
63018;SDS011;49105;46.046;10.760;2023-01-29T05:48:31;3.53;;;3.42;;
63018;SDS011;49105;46.046;10.760;2023-01-29T05:51:00;3.88;;;3.78;;
63018;SDS011;49105;46.046;10.760;2023-01-29T05:53:36;3.15;;;3.05;;
63018;SDS011;49105;46.046;10.760;2023-01-29T05:56:10;2.80;;;2.70;;
63018;SDS011;49105;46.046;10.760;2023-01-29T05:58:42;2.90;;;2.80;;
63018;SDS011;49105;46.046;10.760;2023-01-29T06:04:29;3.00;;;2.87;;
63018;SDS011;49105;46.046;10.760;2023-01-29T06:07:03;2.60;;;2.60;;
63018;SDS011;49105;46.046;10.760;2023-01-29T06:09:38;3.20;;;3.10;;
63018;SDS011;49105;46.046;10.760;2023-01-29T06:12:07;3.40;;;3.30;;
63018;SDS011;49105;46.046;10.760;2023-01-29T06:14:42;3.50;;;3.40;;
63018;SDS011;49105;46.046;10.760;2023-01-29T06:17:13;3.28;;;3.17;;
63018;SDS011;49105;46.046;10.760;2023-01-29T06:19:48;3.90;;;3.72;;
63018;SDS011;49105;46.046;10.760;2023-01-29T06:22:22;3.55;;;3.40;;
63018;SDS011;49105;46.046;10.760;2023-01-29T06:24:48;3.30;;;3.20;;
63018;SDS011;49105;46.046;10.760;2023-01-29T06:27:19;3.35;;;3.25;;
63018;SDS011;49105;46.046;10.760;2023-01-29T06:29:45;3.67;;;3.58;;
63018;SDS011;49105;46.046;10.760;2023-01-29T06:32:10;3.10;;;3.00;;
63018;SDS011;49105;46.046;10.760;2023-01-29T06:34:54;3.00;;;2.90;;
63018;SDS011;49105;46.046;10.760;2023-01-29T06:37:19;3.10;;;3.00;;
63018;SDS011;49105;46.046;10.760;2023-01-29T06:39:54;3.00;;;2.90;;
63018;SDS011;49105;46.046;10.760;2023-01-29T06:42:25;3.15;;;3.05;;
63018;SDS011;49105;46.046;10.760;2023-01-29T06:45:00;4.05;;;3.85;;
63018;SDS011;49105;46.046;10.760;2023-01-29T06:47:29;3.40;;;3.30;;
63018;SDS011;49105;46.046;10.760;2023-01-29T06:49:55;3.10;;;3.00;;
63018;SDS011;49105;46.046;10.760;2023-01-29T06:52:29;3.40;;;3.30;;
63018;SDS011;49105;46.046;10.760;2023-01-29T06:55:04;3.20;;;3.10;;
63018;SDS011;49105;46.046;10.760;2023-01-29T06:57:39;2.95;;;2.85;;
63018;SDS011;49105;46.046;10.760;2023-01-29T07:00:15;6.47;;;5.85;;
63018;SDS011;49105;46.046;10.760;2023-01-29T07:02:41;2.45;;;2.45;;
63018;SDS011;49105;46.046;10.760;2023-01-29T07:05:09;3.50;;;3.40;;
63018;SDS011;49105;46.046;10.760;2023-01-29T07:07:35;3.30;;;3.20;;
63018;SDS011;49105;46.046;10.760;2023-01-29T07:10:04;3.10;;;3.00;;
63018;SDS011;49105;46.046;10.760;2023-01-29T07:12:30;3.50;;;3.40;;
63018;SDS011;49105;46.046;10.760;2023-01-29T07:14:55;3.40;;;3.30;;
63018;SDS011;49105;46.046;10.760;2023-01-29T07:17:27;3.38;;;3.28;;
63018;SDS011;49105;46.046;10.760;2023-01-29T07:19:58;3.30;;;3.20;;
63018;SDS011;49105;46.046;10.760;2023-01-29T07:22:33;4.95;;;4.55;;
63018;SDS011;49105;46.046;10.760;2023-01-29T07:24:58;3.28;;;3.17;;
63018;SDS011;49105;46.046;10.760;2023-01-29T07:27:24;3.67;;;3.58;;
63018;SDS011;49105;46.046;10.760;2023-01-29T07:29:49;2.97;;;2.88;;
63018;SDS011;49105;46.046;10.760;2023-01-29T07:32:15;3.20;;;3.10;;
63018;SDS011;49105;46.046;10.760;2023-01-29T07:34:40;3.97;;;3.78;;
63018;SDS011;49105;46.046;10.760;2023-01-29T07:37:05;3.58;;;3.47;;
63018;SDS011;49105;46.046;10.760;2023-01-29T07:39:46;4.63;;;4.43;;
63018;SDS011;49105;46.046;10.760;2023-01-29T07:42:11;3.00;;;2.90;;
63018;SDS011;49105;46.046;10.760;2023-01-29T07:44:37;2.50;;;2.50;;
63018;SDS011;49105;46.046;10.760;2023-01-29T07:47:05;2.47;;;2.47;;
63018;SDS011;49105;46.046;10.760;2023-01-29T07:49:31;3.47;;;3.38;;
63018;SDS011;49105;46.046;10.760;2023-01-29T07:51:56;3.25;;;3.15;;
63018;SDS011;49105;46.046;10.760;2023-01-29T07:54:22;7.10;;;4.70;;
63018;SDS011;49105;46.046;10.760;2023-01-29T07:56:47;3.08;;;2.97;;
63018;SDS011;49105;46.046;10.760;2023-01-29T07:59:12;3.40;;;3.30;;
63018;SDS011;49105;46.046;10.760;2023-01-29T08:01:38;3.08;;;2.97;;
63018;SDS011;49105;46.046;10.760;2023-01-29T08:04:03;6.32;;;3.60;;
63018;SDS011;49105;46.046;10.760;2023-01-29T08:06:29;2.97;;;2.88;;
63018;SDS011;49105;46.046;10.760;2023-01-29T08:08:54;3.35;;;3.25;;
63018;SDS011;49105;46.046;10.760;2023-01-29T08:11:21;3.10;;;3.00;;
63018;SDS011;49105;46.046;10.760;2023-01-29T08:13:55;3.50;;;3.40;;
63018;SDS011;49105;46.046;10.760;2023-01-29T08:16:34;3.03;;;2.92;;
63018;SDS011;49105;46.046;10.760;2023-01-29T08:19:08;3.42;;;3.33;;
63018;SDS011;49105;46.046;10.760;2023-01-29T08:21:34;3.45;;;3.15;;
63018;SDS011;49105;46.046;10.760;2023-01-29T08:23:59;3.45;;;3.35;;
63018;SDS011;49105;46.046;10.760;2023-01-29T08:26:34;3.58;;;3.47;;
63018;SDS011;49105;46.046;10.760;2023-01-29T08:28:59;3.45;;;3.35;;
63018;SDS011;49105;46.046;10.760;2023-01-29T08:34:18;4.88;;;3.90;;
63018;SDS011;49105;46.046;10.760;2023-01-29T08:36:44;3.38;;;3.28;;
63018;SDS011;49105;46.046;10.760;2023-01-29T08:39:09;4.32;;;4.22;;
63018;SDS011;49105;46.046;10.760;2023-01-29T08:41:35;3.65;;;3.55;;
63018;SDS011;49105;46.046;10.760;2023-01-29T08:44:00;3.60;;;3.50;;
63018;SDS011;49105;46.046;10.760;2023-01-29T08:46:34;2.80;;;2.70;;
63018;SDS011;49105;46.046;10.760;2023-01-29T08:49:11;2.83;;;2.72;;
63018;SDS011;49105;46.046;10.760;2023-01-29T08:51:43;3.20;;;3.10;;
63018;SDS011;49105;46.046;10.760;2023-01-29T08:54:15;3.17;;;3.08;;
63018;SDS011;49105;46.046;10.760;2023-01-29T08:56:40;3.50;;;3.40;;
63018;SDS011;49105;46.046;10.760;2023-01-29T08:59:06;3.50;;;3.40;;
63018;SDS011;49105;46.046;10.760;2023-01-29T09:01:34;3.15;;;3.05;;
63018;SDS011;49105;46.046;10.760;2023-01-29T09:04:06;3.35;;;3.25;;
63018;SDS011;49105;46.046;10.760;2023-01-29T09:06:40;3.17;;;3.08;;
63018;SDS011;49105;46.046;10.760;2023-01-29T09:09:06;3.00;;;2.90;;
63018;SDS011;49105;46.046;10.760;2023-01-29T09:11:32;3.13;;;3.03;;
63018;SDS011;49105;46.046;10.760;2023-01-29T09:13:57;3.20;;;3.00;;
63018;SDS011;49105;46.046;10.760;2023-01-29T09:16:23;4.00;;;3.90;;
63018;SDS011;49105;46.046;10.760;2023-01-29T09:18:48;5.05;;;4.75;;
63018;SDS011;49105;46.046;10.760;2023-01-29T09:21:13;3.42;;;3.33;;
63018;SDS011;49105;46.046;10.760;2023-01-29T09:23:42;3.35;;;3.25;;
63018;SDS011;49105;46.046;10.760;2023-01-29T09:26:13;3.38;;;3.28;;
63018;SDS011;49105;46.046;10.760;2023-01-29T09:28:38;3.50;;;3.40;;
63018;SDS011;49105;46.046;10.760;2023-01-29T09:31:04;4.07;;;3.92;;
63018;SDS011;49105;46.046;10.760;2023-01-29T09:33:29;2.50;;;2.50;;
63018;SDS011;49105;46.046;10.760;2023-01-29T09:35:58;3.45;;;3.35;;
63018;SDS011;49105;46.046;10.760;2023-01-29T09:38:23;3.47;;;3.38;;
63018;SDS011;49105;46.046;10.760;2023-01-29T09:43:44;2.75;;;2.65;;
63018;SDS011;49105;46.046;10.760;2023-01-29T09:46:14;3.08;;;2.97;;
63018;SDS011;49105;46.046;10.760;2023-01-29T09:49:03;4.72;;;4.30;;
63018;SDS011;49105;46.046;10.760;2023-01-29T09:51:42;3.67;;;3.47;;
63018;SDS011;49105;46.046;10.760;2023-01-29T09:57:14;3.20;;;3.10;;
63018;SDS011;49105;46.046;10.760;2023-01-29T09:59:49;2.45;;;2.35;;
63018;SDS011;49105;46.046;10.760;2023-01-29T10:25:12;2.42;;;2.40;;
63018;SDS011;49105;46.046;10.760;2023-01-29T10:27:50;1.92;;;1.92;;
63018;SDS011;49105;46.046;10.760;2023-01-29T10:30:20;1.73;;;1.73;;
63018;SDS011;49105;46.046;10.760;2023-01-29T10:35:48;1.70;;;1.70;;
63018;SDS011;49105;46.046;10.760;2023-01-29T10:38:20;1.85;;;1.85;;
63018;SDS011;49105;46.046;10.760;2023-01-29T10:40:58;2.47;;;2.38;;
63018;SDS011;49105;46.046;10.760;2023-01-29T10:43:37;2.63;;;2.53;;
63018;SDS011;49105;46.046;10.760;2023-01-29T10:46:14;1.70;;;1.70;;
63018;SDS011;49105;46.046;10.760;2023-01-29T10:49:03;1.60;;;1.60;;
63018;SDS011;49105;46.046;10.760;2023-01-29T11:00:38;2.08;;;1.98;;
63018;SDS011;49105;46.046;10.760;2023-01-29T11:03:15;1.77;;;1.77;;
63018;SDS011;49105;46.046;10.760;2023-01-29T11:08:41;1.65;;;1.65;;
63018;SDS011;49105;46.046;10.760;2023-01-29T11:11:30;1.58;;;1.58;;
63018;SDS011;49105;46.046;10.760;2023-01-29T11:14:11;1.90;;;1.90;;
63018;SDS011;49105;46.046;10.760;2023-01-29T11:16:49;1.80;;;1.80;;
63018;SDS011;49105;46.046;10.760;2023-01-29T11:22:20;1.60;;;1.60;;
63018;SDS011;49105;46.046;10.760;2023-01-29T11:25:06;1.80;;;1.80;;
63018;SDS011;49105;46.046;10.760;2023-01-29T11:27:52;2.00;;;2.00;;
63018;SDS011;49105;46.046;10.760;2023-01-29T11:30:38;2.00;;;2.00;;
63018;SDS011;49105;46.046;10.760;2023-01-29T11:35:36;2.10;;;2.00;;
63018;SDS011;49105;46.046;10.760;2023-01-29T11:40:46;1.92;;;1.92;;
63018;SDS011;49105;46.046;10.760;2023-01-29T11:43:22;1.70;;;1.70;;
63018;SDS011;49105;46.046;10.760;2023-01-29T11:46:01;1.70;;;1.70;;
63018;SDS011;49105;46.046;10.760;2023-01-29T11:48:33;1.75;;;1.75;;
63018;SDS011;49105;46.046;10.760;2023-01-29T11:51:21;1.60;;;1.60;;
63018;SDS011;49105;46.046;10.760;2023-01-29T11:53:55;1.80;;;1.80;;
63018;SDS011;49105;46.046;10.760;2023-01-29T11:56:41;1.80;;;1.80;;
63018;SDS011;49105;46.046;10.760;2023-01-29T11:59:29;1.60;;;1.60;;
63018;SDS011;49105;46.046;10.760;2023-01-29T12:02:16;1.75;;;1.75;;
63018;SDS011;49105;46.046;10.760;2023-01-29T12:04:50;1.80;;;1.80;;
63018;SDS011;49105;46.046;10.760;2023-01-29T12:07:18;1.77;;;1.77;;
63018;SDS011;49105;46.046;10.760;2023-01-29T12:09:54;1.50;;;1.50;;
63018;SDS011;49105;46.046;10.760;2023-01-29T12:12:30;1.65;;;1.65;;
63018;SDS011;49105;46.046;10.760;2023-01-29T12:20:40;2.08;;;1.98;;
63018;SDS011;49105;46.046;10.760;2023-01-29T12:26:14;1.80;;;1.80;;
63018;SDS011;49105;46.046;10.760;2023-01-29T12:32:06;2.13;;;2.03;;
63018;SDS011;49105;46.046;10.760;2023-01-29T12:35:00;1.98;;;1.98;;
63018;SDS011;49105;46.046;10.760;2023-01-29T12:38:03;1.40;;;1.40;;
63018;SDS011;49105;46.046;10.760;2023-01-29T12:40:33;1.55;;;1.55;;
63018;SDS011;49105;46.046;10.760;2023-01-29T12:43:09;1.98;;;1.98;;
63018;SDS011;49105;46.046;10.760;2023-01-29T12:45:51;2.38;;;2.28;;
63018;SDS011;49105;46.046;10.760;2023-01-29T12:48:22;2.03;;;2.03;;
63018;SDS011;49105;46.046;10.760;2023-01-29T12:50:56;2.38;;;2.25;;
63018;SDS011;49105;46.046;10.760;2023-01-29T12:53:47;1.83;;;1.65;;
63018;SDS011;49105;46.046;10.760;2023-01-29T12:56:35;1.90;;;1.90;;
63018;SDS011;49105;46.046;10.760;2023-01-29T12:59:39;5.25;;;3.97;;
63018;SDS011;49105;46.046;10.760;2023-01-29T13:05:12;1.77;;;1.77;;
63018;SDS011;49105;46.046;10.760;2023-01-29T13:07:46;3.53;;;2.50;;
63018;SDS011;49105;46.046;10.760;2023-01-29T13:10:25;1.83;;;1.83;;
63018;SDS011;49105;46.046;10.760;2023-01-29T13:13:01;2.03;;;2.03;;
63018;SDS011;49105;46.046;10.760;2023-01-29T13:15:37;1.90;;;1.90;;
63018;SDS011;49105;46.046;10.760;2023-01-29T13:20:59;2.65;;;2.55;;
63018;SDS011;49105;46.046;10.760;2023-01-29T13:26:06;1.70;;;1.70;;
63018;SDS011;49105;46.046;10.760;2023-01-29T13:28:34;1.85;;;1.85;;
63018;SDS011;49105;46.046;10.760;2023-01-29T13:36:26;1.83;;;1.83;;
63018;SDS011;49105;46.046;10.760;2023-01-29T13:39:04;1.63;;;1.63;;
63018;SDS011;49105;46.046;10.760;2023-01-29T13:41:40;1.70;;;1.70;;
63018;SDS011;49105;46.046;10.760;2023-01-29T13:44:23;1.80;;;1.80;;
63018;SDS011;49105;46.046;10.760;2023-01-29T13:46:57;1.70;;;1.70;;
63018;SDS011;49105;46.046;10.760;2023-01-29T13:49:28;1.98;;;1.98;;
63018;SDS011;49105;46.046;10.760;2023-01-29T13:52:15;1.90;;;1.90;;
63018;SDS011;49105;46.046;10.760;2023-01-29T13:54:57;10.55;;;4.75;;
63018;SDS011;49105;46.046;10.760;2023-01-29T14:05:42;1.90;;;1.90;;
63018;SDS011;49105;46.046;10.760;2023-01-29T14:13:53;2.67;;;2.58;;
63018;SDS011;49105;46.046;10.760;2023-01-29T14:18:47;2.13;;;2.10;;
63018;SDS011;49105;46.046;10.760;2023-01-29T14:21:27;1.88;;;1.88;;
63018;SDS011;49105;46.046;10.760;2023-01-29T14:24:07;1.58;;;1.58;;
63018;SDS011;49105;46.046;10.760;2023-01-29T14:26:40;1.80;;;1.80;;
63018;SDS011;49105;46.046;10.760;2023-01-29T14:31:48;7.28;;;2.50;;
63018;SDS011;49105;46.046;10.760;2023-01-29T14:34:28;2.00;;;2.00;;
63018;SDS011;49105;46.046;10.760;2023-01-29T14:58:35;1.67;;;1.67;;
63018;SDS011;49105;46.046;10.760;2023-01-29T15:01:13;1.80;;;1.80;;
63018;SDS011;49105;46.046;10.760;2023-01-29T15:03:48;1.70;;;1.70;;
63018;SDS011;49105;46.046;10.760;2023-01-29T15:06:17;1.70;;;1.70;;
63018;SDS011;49105;46.046;10.760;2023-01-29T15:14:42;1.67;;;1.67;;
63018;SDS011;49105;46.046;10.760;2023-01-29T15:19:57;2.78;;;2.67;;
63018;SDS011;49105;46.046;10.760;2023-01-29T15:22:25;1.67;;;1.67;;
63018;SDS011;49105;46.046;10.760;2023-01-29T15:27:41;1.60;;;1.60;;
63018;SDS011;49105;46.046;10.760;2023-01-29T15:30:25;2.30;;;2.13;;
63018;SDS011;49105;46.046;10.760;2023-01-29T15:32:59;1.58;;;1.58;;
63018;SDS011;49105;46.046;10.760;2023-01-29T15:35:39;1.80;;;1.80;;
63018;SDS011;49105;46.046;10.760;2023-01-29T15:38:22;2.13;;;2.13;;
63018;SDS011;49105;46.046;10.760;2023-01-29T15:40:57;2.63;;;2.53;;
63018;SDS011;49105;46.046;10.760;2023-01-29T15:43:34;2.60;;;2.50;;
63018;SDS011;49105;46.046;10.760;2023-01-29T15:46:35;1.50;;;1.50;;
63018;SDS011;49105;46.046;10.760;2023-01-29T15:52:30;1.92;;;1.92;;
63018;SDS011;49105;46.046;10.760;2023-01-29T15:55:09;1.60;;;1.60;;
63018;SDS011;49105;46.046;10.760;2023-01-29T15:57:44;1.67;;;1.67;;
63018;SDS011;49105;46.046;10.760;2023-01-29T16:00:22;1.70;;;1.70;;
63018;SDS011;49105;46.046;10.760;2023-01-29T16:02:55;1.88;;;1.88;;
63018;SDS011;49105;46.046;10.760;2023-01-29T16:05:28;1.65;;;1.65;;
63018;SDS011;49105;46.046;10.760;2023-01-29T16:08:06;1.73;;;1.70;;
63018;SDS011;49105;46.046;10.760;2023-01-29T16:10:37;2.20;;;2.20;;
63018;SDS011;49105;46.046;10.760;2023-01-29T16:16:24;2.08;;;1.98;;
63018;SDS011;49105;46.046;10.760;2023-01-29T16:18:50;1.70;;;1.70;;
63018;SDS011;49105;46.046;10.760;2023-01-29T16:23:55;1.88;;;1.88;;
63018;SDS011;49105;46.046;10.760;2023-01-29T16:26:24;2.78;;;2.60;;
63018;SDS011;49105;46.046;10.760;2023-01-29T16:29:05;1.80;;;1.80;;
63018;SDS011;49105;46.046;10.760;2023-01-29T16:31:39;1.90;;;1.90;;
63018;SDS011;49105;46.046;10.760;2023-01-29T16:34:21;1.85;;;1.85;;
63018;SDS011;49105;46.046;10.760;2023-01-29T16:36:50;1.80;;;1.80;;
63018;SDS011;49105;46.046;10.760;2023-01-29T16:39:34;1.90;;;1.90;;
63018;SDS011;49105;46.046;10.760;2023-01-29T16:44:45;2.08;;;1.90;;
63018;SDS011;49105;46.046;10.760;2023-01-29T16:47:37;2.17;;;2.13;;
63018;SDS011;49105;46.046;10.760;2023-01-29T16:55:35;2.50;;;2.50;;
63018;SDS011;49105;46.046;10.760;2023-01-29T16:58:40;2.38;;;2.38;;
63018;SDS011;49105;46.046;10.760;2023-01-29T17:01:11;2.33;;;2.22;;
63018;SDS011;49105;46.046;10.760;2023-01-29T17:03:42;2.00;;;2.00;;
63018;SDS011;49105;46.046;10.760;2023-01-29T17:08:51;2.30;;;2.30;;
63018;SDS011;49105;46.046;10.760;2023-01-29T17:14:10;2.80;;;2.70;;
63018;SDS011;49105;46.046;10.760;2023-01-29T17:16:53;1.85;;;1.85;;
63018;SDS011;49105;46.046;10.760;2023-01-29T17:19:29;3.72;;;3.63;;
63018;SDS011;49105;46.046;10.760;2023-01-29T17:22:01;4.78;;;4.38;;
63018;SDS011;49105;46.046;10.760;2023-01-29T17:24:29;2.30;;;2.30;;
63018;SDS011;49105;46.046;10.760;2023-01-29T17:30:05;2.08;;;2.08;;
63018;SDS011;49105;46.046;10.760;2023-01-29T17:32:37;2.00;;;2.00;;
63018;SDS011;49105;46.046;10.760;2023-01-29T17:35:03;1.77;;;1.77;;
63018;SDS011;49105;46.046;10.760;2023-01-29T17:37:30;1.88;;;1.85;;
63018;SDS011;49105;46.046;10.760;2023-01-29T17:43:01;1.80;;;1.80;;
63018;SDS011;49105;46.046;10.760;2023-01-29T17:45:26;1.80;;;1.80;;
63018;SDS011;49105;46.046;10.760;2023-01-29T17:47:52;3.90;;;3.65;;
63018;SDS011;49105;46.046;10.760;2023-01-29T17:50:28;1.95;;;1.77;;
63018;SDS011;49105;46.046;10.760;2023-01-29T17:53:04;1.70;;;1.70;;
63018;SDS011;49105;46.046;10.760;2023-01-29T17:55:36;1.88;;;1.85;;
63018;SDS011;49105;46.046;10.760;2023-01-29T17:58:04;2.10;;;2.10;;
63018;SDS011;49105;46.046;10.760;2023-01-29T18:00:33;2.05;;;2.05;;
63018;SDS011;49105;46.046;10.760;2023-01-29T18:03:11;2.20;;;2.20;;
63018;SDS011;49105;46.046;10.760;2023-01-29T18:05:46;2.10;;;2.10;;
63018;SDS011;49105;46.046;10.760;2023-01-29T18:10:51;2.30;;;2.20;;
63018;SDS011;49105;46.046;10.760;2023-01-29T18:13:23;2.15;;;2.15;;
63018;SDS011;49105;46.046;10.760;2023-01-29T18:15:55;2.00;;;2.00;;
63018;SDS011;49105;46.046;10.760;2023-01-29T18:18:29;2.10;;;2.10;;
63018;SDS011;49105;46.046;10.760;2023-01-29T18:20:55;2.70;;;2.63;;
63018;SDS011;49105;46.046;10.760;2023-01-29T18:23:27;2.60;;;2.50;;
63018;SDS011;49105;46.046;10.760;2023-01-29T18:25:55;2.60;;;2.60;;
63018;SDS011;49105;46.046;10.760;2023-01-29T18:28:23;3.03;;;2.92;;
63018;SDS011;49105;46.046;10.760;2023-01-29T18:31:02;2.35;;;2.35;;
63018;SDS011;49105;46.046;10.760;2023-01-29T18:33:28;3.28;;;3.17;;
63018;SDS011;49105;46.046;10.760;2023-01-29T18:35:54;3.15;;;3.05;;
63018;SDS011;49105;46.046;10.760;2023-01-29T18:38:20;2.40;;;2.40;;
63018;SDS011;49105;46.046;10.760;2023-01-29T18:41:00;3.05;;;2.85;;
63018;SDS011;49105;46.046;10.760;2023-01-29T18:43:35;2.13;;;2.13;;
63018;SDS011;49105;46.046;10.760;2023-01-29T18:46:08;2.58;;;2.58;;
63018;SDS011;49105;46.046;10.760;2023-01-29T18:51:14;3.40;;;3.30;;
63018;SDS011;49105;46.046;10.760;2023-01-29T18:53:49;3.50;;;3.30;;
63018;SDS011;49105;46.046;10.760;2023-01-29T18:56:21;3.33;;;3.22;;
63018;SDS011;49105;46.046;10.760;2023-01-29T18:58:46;3.17;;;3.08;;
63018;SDS011;49105;46.046;10.760;2023-01-29T19:01:15;3.55;;;3.45;;
63018;SDS011;49105;46.046;10.760;2023-01-29T19:07:12;3.03;;;2.93;;
63018;SDS011;49105;46.046;10.760;2023-01-29T19:09:39;3.35;;;3.15;;
63018;SDS011;49105;46.046;10.760;2023-01-29T19:12:11;3.45;;;3.35;;
63018;SDS011;49105;46.046;10.760;2023-01-29T19:17:10;3.10;;;3.00;;